Time;durP1;ratioP1;P1;durP2;ratioP2;P2;SDS_P1;SDS_P2;PMS_P1;PMS_P2;Temp;Humidity;BMP_temperature;BMP_pressure;BME280_temperature;BME280_humidity;BME280_pressure;Samples;Min_cycle;Max_cycle;Signal;HPM_P1;HPM_P2
2022/03/16 04:44:11;;;;;;;27.77;17.33;;;;;;;6.82;70.64;100646.31;6452457;27;20245;31
2022/03/16 04:47:14;;;;;;;28.73;16.33;;;;;;;6.91;71.06;100641.91;6514425;27;34253;-89
2022/03/16 04:50:18;;;;;;;24.65;15.60;;;;;;;6.92;70.54;100646.25;6513862;27;35417;-90
2022/03/16 04:53:20;;;;;;;29.87;17.37;;;;;;;6.95;70.10;100651.31;6515961;27;34197;-89
2022/03/16 04:56:23;;;;;;;27.15;17.12;;;;;;;6.89;70.54;100650.06;6508282;27;34825;-89
2022/03/16 04:59:26;;;;;;;28.55;17.85;;;;;;;6.99;70.21;100660.72;6497358;27;34960;-89
2022/03/16 05:02:29;;;;;;;29.30;18.37;;;;;;;7.02;69.45;100669.34;6496758;27;34178;-89
2022/03/16 05:05:32;;;;;;;28.52;16.67;;;;;;;7.10;68.75;100665.06;6496597;27;34851;-89
2022/03/16 05:08:36;;;;;;;24.95;16.25;;;;;;;7.13;68.01;100668.28;6498616;27;34848;-89
2022/03/16 05:11:41;;;;;;;27.75;17.12;;;;;;;7.11;68.45;100661.38;6496818;27;33576;-89
2022/03/16 05:14:44;;;;;;;27.77;16.70;;;;;;;7.16;68.54;100661.78;6500620;27;34149;-88
2022/03/16 05:17:47;;;;;;;27.73;18.48;;;;;;;7.17;68.44;100656.28;6499456;27;34280;-89
2022/03/16 05:20:50;;;;;;;29.77;18.12;;;;;;;7.21;70.32;100664.88;6504134;27;35321;-88
2022/03/16 05:23:53;;;;;;;29.30;18.60;;;;;;;7.13;69.86;100670.13;6505513;27;34840;-88
2022/03/16 05:26:55;;;;;;;27.25;17.77;;;;;;;7.14;70.40;100669.97;6496094;27;34572;-87
2022/03/16 05:29:58;;;;;;;29.40;18.12;;;;;;;7.16;69.40;100667.97;6496217;27;33976;-87
2022/03/16 05:33:01;;;;;;;28.85;16.75;;;;;;;7.22;69.68;100663.87;6497627;27;33752;-87
2022/03/16 05:36:04;;;;;;;28.62;18.00;;;;;;;7.33;68.55;100666.34;6496806;27;34641;-87
2022/03/16 05:39:08;;;;;;;30.25;17.70;;;;;;;7.29;68.98;100674.84;6501338;27;34477;-87
2022/03/16 05:42:11;;;;;;;27.40;18.27;;;;;;;7.16;72.38;100704.63;6500585;27;34777;-87
2022/03/16 05:45:13;;;;;;;31.77;17.95;;;;;;;6.96;74.86;100701.19;6499783;27;33952;-88
2022/03/16 05:48:16;;;;;;;32.55;17.55;;;;;;;6.93;77.76;100713.03;6497743;27;34615;-87
2022/03/16 05:51:19;;;;;;;27.20;17.98;;;;;;;6.68;80.22;100711.00;6495521;27;33752;-87
2022/03/16 05:54:23;;;;;;;31.25;18.92;;;;;;;6.62;81.10;100720.44;6495633;27;34005;-88
2022/03/16 05:57:26;;;;;;;27.00;17.33;;;;;;;6.62;83.39;100724.94;6495885;27;34876;-88
2022/03/16 06:00:31;;;;;;;25.45;16.25;;;;;;;6.58;83.83;100722.56;6496935;27;34105;-88
2022/03/16 06:03:34;;;;;;;27.10;18.58;;;;;;;6.75;84.64;100717.44;6496378;27;33956;-88
2022/03/16 06:06:37;;;;;;;29.35;19.60;;;;;;;6.75;85.54;100722.78;6498717;27;34170;-87
2022/03/16 06:09:40;;;;;;;29.65;17.90;;;;;;;6.76;86.06;100724.50;6498242;27;34167;-87
2022/03/16 06:13:09;;;;;;;30.30;20.05;;;;;;;6.63;88.27;100718.59;6497067;27;33727;-86
2022/03/16 06:16:12;;;;;;;31.25;18.48;;;;;;;6.58;90.80;100733.28;6495315;27;34093;-89
2022/03/16 06:19:16;;;;;;;33.08;19.02;;;;;;;6.56;91.86;100734.41;6497472;27;33842;-88
2022/03/16 06:22:19;;;;;;;34.90;21.42;;;;;;;6.33;93.27;100736.53;6495453;27;34927;-88
2022/03/16 06:25:25;;;;;;;38.10;22.58;;;;;;;6.22;96.27;100742.00;6495281;27;34171;-88
2022/03/16 06:28:27;;;;;;;35.08;21.33;;;;;;;6.17;97.48;100733.56;6495861;27;33412;-88
2022/03/16 06:31:30;;;;;;;34.78;20.80;;;;;;;6.22;97.32;100750.03;6494937;27;34389;-88
2022/03/16 06:34:33;;;;;;;36.15;21.27;;;;;;;6.25;96.30;100749.75;6494405;27;35127;-88
2022/03/16 06:37:36;;;;;;;34.00;21.83;;;;;;;6.22;96.35;100747.34;6488568;27;152733;-88
2022/03/16 06:40:39;;;;;;;34.15;22.25;;;;;;;6.44;93.00;100748.91;6493477;27;34488;-88
2022/03/16 06:43:42;;;;;;;32.78;20.12;;;;;;;6.45;91.29;100743.41;6495548;27;33731;-88
2022/03/16 06:46:47;;;;;;;37.00;23.17;;;;;;;6.46;91.46;100750.44;6499846;27;34015;-87
2022/03/16 06:49:50;;;;;;;33.83;22.80;;;;;;;6.45;92.41;100756.78;6495921;27;34012;-88
2022/03/16 06:52:54;;;;;;;33.60;22.17;;;;;;;6.51;92.84;100752.69;6500572;27;34482;-87
2022/03/16 06:55:56;;;;;;;30.42;20.50;;;;;;;6.46;90.32;100747.75;6500106;27;33626;-87
2022/03/16 06:58:59;;;;;;;28.70;17.12;;;;;;;6.40;89.88;100759.03;6500170;27;34192;-87
2022/03/16 07:02:02;;;;;;;33.35;20.88;;;;;;;6.34;89.05;100760.44;6513121;27;34205;-88
2022/03/16 07:05:06;;;;;;;29.25;19.25;;;;;;;6.22;89.67;100748.19;6502238;27;34940;-88
2022/03/16 07:08:10;;;;;;;27.62;16.98;;;;;;;6.19;90.73;100744.97;6494579;27;34194;-88
2022/03/16 07:11:16;;;;;;;32.78;18.10;;;;;;;6.19;90.00;100755.66;6497970;27;34742;-88
2022/03/16 07:14:31;;;;;;;30.80;17.98;;;;;;;6.29;90.37;100752.00;6499785;27;34039;-88
2022/03/16 07:17:36;;;;;;;33.80;18.35;;;;;;;6.32;89.71;100762.44;6501761;27;34746;-88
2022/03/16 07:20:39;;;;;;;32.30;19.10;;;;;;;6.35;90.34;100767.50;6499277;27;34202;-87
2022/03/16 07:23:42;;;;;;;31.98;18.48;;;;;;;6.40;90.15;100774.22;6501773;27;34298;-88
2022/03/16 07:26:45;;;;;;;30.23;18.45;;;;;;;6.16;90.02;100780.00;6496283;27;34273;-88
2022/03/16 07:29:48;;;;;;;28.52;18.25;;;;;;;6.13;89.63;100779.28;6496034;27;34791;-88
2022/03/16 07:32:51;;;;;;;32.08;18.52;;;;;;;5.91;89.91;100775.00;6498836;27;34486;-88
2022/03/16 07:35:55;;;;;;;26.12;17.23;;;;;;;5.81;91.00;100774.12;6499441;27;34995;-87
2022/03/16 07:38:58;;;;;;;28.05;17.42;;;;;;;5.72;91.48;100774.12;6495985;27;33746;-88
2022/03/16 07:42:01;;;;;;;27.23;17.02;;;;;;;5.72;91.99;100779.47;6495380;27;33848;-88
2022/03/16 07:45:05;;;;;;;27.23;16.58;;;;;;;5.74;93.14;100788.19;6496249;27;33753;-88
2022/03/16 07:48:08;;;;;;;27.45;16.90;;;;;;;5.68;91.33;100787.75;6496155;27;34700;-88
2022/03/16 07:51:12;;;;;;;30.85;17.95;;;;;;;5.54;93.25;100793.47;6495777;27;33586;-88
2022/03/16 07:54:14;;;;;;;30.12;17.95;;;;;;;5.48;94.05;100802.03;6496060;27;34605;-88
2022/03/16 07:57:17;;;;;;;30.67;18.98;;;;;;;5.28;95.38;100797.56;6495895;27;34788;-88
2022/03/16 08:00:21;;;;;;;33.90;21.08;;;;;;;5.08;96.41;100804.62;6496132;27;34216;-88
2022/03/16 08:03:30;;;;;;;33.05;21.52;;;;;;;5.11;97.90;100807.88;6494904;27;34217;-88
2022/03/16 08:06:34;;;;;;;34.45;21.92;;;;;;;5.15;100.00;100812.00;6495455;27;34678;-88
2022/03/16 08:09:37;;;;;;;30.15;17.30;;;;;;;5.40;98.59;100801.84;6495865;27;34165;-93
2022/03/16 08:12:39;;;;;;;25.92;17.80;;;;;;;5.53;96.37;100815.81;6498483;27;33999;-89
2022/03/16 08:15:42;;;;;;;31.02;19.73;;;;;;;5.51;96.18;100811.59;6494980;27;34020;-91
2022/03/16 08:18:45;;;;;;;32.47;21.45;;;;;;;5.37;97.29;100802.94;6495874;27;34161;-91
2022/03/16 08:21:48;;;;;;;32.38;20.17;;;;;;;5.36;98.05;100809.28;6496351;27;34704;-88
2022/03/16 08:24:52;;;;;;;29.52;18.00;;;;;;;5.36;98.52;100816.44;6495770;27;33914;-87
2022/03/16 08:27:58;;;;;;;28.98;18.10;;;;;;;5.54;97.13;100814.84;6496569;27;35861;-88
2022/03/16 08:31:01;;;;;;;33.28;18.87;;;;;;;5.65;96.32;100821.91;6496050;27;34350;-88
2022/03/16 08:34:06;;;;;;;29.85;16.75;;;;;;;5.67;98.05;100810.13;6495739;27;33605;-88
2022/03/16 08:37:10;;;;;;;30.45;17.98;;;;;;;5.65;96.99;100821.91;6495466;27;34260;-88
2022/03/16 08:40:16;;;;;;;29.05;17.17;;;;;;;5.58;96.46;100826.09;6496140;27;33985;-88
2022/03/16 08:43:19;;;;;;;31.27;18.35;;;;;;;5.59;94.99;100828.62;6495438;27;34423;-88
2022/03/16 08:46:22;;;;;;;30.83;19.02;;;;;;;5.61;95.88;100832.00;6496212;27;34595;-87
2022/03/16 08:49:25;;;;;;;31.35;17.10;;;;;;;5.62;96.82;100843.56;6495261;27;36212;-87
2022/03/16 08:52:28;;;;;;;40.25;19.10;;;;;;;5.56;95.03;100844.94;6495286;27;34316;-87
2022/03/16 08:55:31;;;;;;;28.85;19.50;;;;;;;5.53;94.98;100855.88;6475329;27;34410;-87
2022/03/16 08:58:34;;;;;;;33.85;18.73;;;;;;;5.46;95.22;100860.03;6494917;27;34090;-86
2022/03/16 09:01:38;;;;;;;34.83;19.00;;;;;;;5.43;96.88;100863.81;6495466;27;34073;-88
2022/03/16 09:04:42;;;;;;;28.62;18.65;;;;;;;5.40;94.44;100872.09;6495132;27;34032;-88
2022/03/16 09:07:45;;;;;;;30.30;17.95;;;;;;;5.37;94.93;100875.03;6496180;27;34464;-87
2022/03/16 09:10:48;;;;;;;29.12;18.30;;;;;;;5.37;92.54;100888.37;6497029;27;34902;-87
2022/03/16 09:13:51;;;;;;;27.80;16.95;;;;;;;5.28;93.45;100885.66;6495649;27;34388;-86
2022/03/16 09:16:54;;;;;;;29.63;16.35;;;;;;;5.38;93.04;100882.09;6496855;27;34702;-87
2022/03/16 09:19:57;;;;;;;26.87;17.00;;;;;;;5.34;93.58;100887.81;6500663;27;34108;-87
2022/03/16 09:23:01;;;;;;;28.52;17.65;;;;;;;5.26;94.87;100900.97;6501714;27;35314;-87
2022/03/16 09:26:05;;;;;;;29.12;17.37;;;;;;;5.25;95.29;100891.28;6498828;27;34914;-87
2022/03/16 09:29:09;;;;;;;31.50;17.67;;;;;;;5.25;96.26;100900.12;6500673;27;34132;-87
2022/03/16 09:32:13;;;;;;;33.90;17.70;;;;;;;5.16;98.83;100901.75;6501247;27;34189;-86
2022/03/16 09:35:17;;;;;;;31.55;18.02;;;;;;;5.20;98.76;100905.00;6499944;27;34226;-87
2022/03/16 09:38:19;;;;;;;30.15;18.75;;;;;;;5.32;98.67;100911.13;6502748;27;34949;-87
2022/03/16 09:41:23;;;;;;;29.48;16.35;;;;;;;5.26;98.88;100922.31;6501913;27;34549;-87
2022/03/16 09:44:33;;;;;;;32.75;18.55;;;;;;;5.24;98.90;100919.78;6494971;27;34187;-87
2022/03/16 09:47:37;;;;;;;26.80;17.27;;;;;;;5.22;100.00;100919.06;6495151;27;34504;-87
2022/03/16 09:50:41;;;;;;;31.40;18.23;;;;;;;5.19;99.26;100922.84;6495600;27;34222;-87
2022/03/16 09:53:45;;;;;;;28.80;18.17;;;;;;;5.25;99.93;100923.31;6514349;27;35674;-86
2022/03/16 09:56:54;;;;;;;29.00;16.90;;;;;;;5.38;99.68;100924.81;6498686;27;34292;-87
2022/03/16 09:59:57;;;;;;;25.40;15.98;;;;;;;5.34;98.40;100930.53;6496046;27;34048;-87
2022/03/16 10:03:12;;;;;;;26.95;16.98;;;;;;;5.36;99.83;100931.25;6497056;27;34383;-91
2022/03/16 10:06:17;;;;;;;28.42;17.25;;;;;;;5.39;98.39;100939.00;6499112;27;34005;-91
2022/03/16 10:16:10;;;;;;;28.80;18.40;;;;;;;5.51;99.51;100934.44;6495630;27;33831;-88
2022/03/16 10:19:13;;;;;;;31.10;18.83;;;;;;;5.56;99.85;100930.41;6494581;27;34221;-88
2022/03/16 10:22:28;;;;;;;29.70;18.42;;;;;;;5.65;99.12;100940.28;6495373;27;34828;-87
2022/03/16 10:25:38;;;;;;;30.27;17.98;;;;;;;5.76;97.90;100935.81;6496497;27;34282;-88
2022/03/16 10:28:42;;;;;;;31.05;18.33;;;;;;;5.72;97.95;100945.94;6494565;27;34034;-88
2022/03/16 10:32:03;;;;;;;32.10;18.55;;;;;;;5.63;98.21;100947.56;6496198;27;34357;-88
2022/03/16 10:35:07;;;;;;;34.90;19.23;;;;;;;5.65;98.78;100947.47;6494581;27;34467;-88
2022/03/16 10:38:11;;;;;;;35.13;20.15;;;;;;;5.58;99.02;100944.44;6497095;27;33669;-88
2022/03/16 10:48:10;;;;;;;29.35;17.65;;;;;;;6.02;98.43;100952.28;6499760;27;34799;-88
2022/03/16 10:51:18;;;;;;;29.73;18.27;;;;;;;5.93;95.62;100953.94;6500070;27;35439;-91
2022/03/16 10:54:23;;;;;;;27.85;17.65;;;;;;;5.87;96.11;100949.09;6499815;27;34470;-88
2022/03/16 10:57:27;;;;;;;29.02;17.75;;;;;;;6.07;95.16;100950.06;6496479;27;34630;-88
2022/03/16 11:00:32;;;;;;;28.17;17.45;;;;;;;6.07;95.13;100958.09;6497372;27;34045;-88
2022/03/16 11:03:36;;;;;;;27.50;17.30;;;;;;;6.00;94.82;100965.81;6495914;27;34012;-88
2022/03/16 11:06:40;;;;;;;28.30;16.02;;;;;;;5.96;95.23;100966.19;6495410;27;33622;-88
2022/03/16 11:09:43;;;;;;;24.92;15.88;;;;;;;5.93;93.88;100969.97;6496068;27;34984;-88
2022/03/16 11:16:09;;;;;;;29.92;16.45;;;;;;;5.85;92.60;100978.66;6495863;27;34134;-88
2022/03/16 11:19:17;;;;;;;25.40;15.77;;;;;;;5.83;92.18;100977.91;6495863;27;33661;-88
2022/03/16 11:22:34;;;;;;;28.60;17.10;;;;;;;5.84;91.90;100989.44;6496062;27;33801;-88
2022/03/16 11:26:11;;;;;;;29.10;16.10;;;;;;;5.83;91.96;100990.44;6504764;27;33960;-87
2022/03/16 11:29:27;;;;;;;29.55;17.62;;;;;;;5.93;92.15;100988.69;6515014;27;34400;-88
2022/03/16 11:32:36;;;;;;;28.33;17.77;;;;;;;6.12;90.78;100994.13;6513107;27;34445;-87
2022/03/16 11:35:52;;;;;;;32.75;18.02;;;;;;;6.25;90.79;100988.53;6514067;27;35053;-87
2022/03/16 11:38:55;;;;;;;28.90;17.27;;;;;;;6.29;90.26;100990.00;6514144;27;35406;-91
2022/03/16 11:41:59;;;;;;;28.83;17.95;;;;;;;6.71;90.16;100981.78;6511874;27;34365;-91
2022/03/16 11:45:36;;;;;;;25.42;16.65;;;;;;;6.92;87.94;100989.72;6508818;27;35179;-88
2022/03/16 11:48:41;;;;;;;27.90;16.60;;;;;;;6.95;87.49;100984.06;6502302;27;34307;-88
2022/03/16 11:51:58;;;;;;;26.83;16.30;;;;;;;7.13;86.14;100988.72;6499236;27;34177;-88
2022/03/16 11:55:00;;;;;;;23.80;14.27;;;;;;;7.45;85.99;100986.59;6494416;27;34669;-88
2022/03/16 11:58:16;;;;;;;24.50;15.73;;;;;;;7.64;82.55;100995.63;6495225;27;34063;-88
2022/03/16 12:01:39;;;;;;;24.45;14.63;;;;;;;7.53;82.12;100987.75;6493785;27;33962;-87
2022/03/16 12:04:46;;;;;;;23.45;14.87;;;;;;;7.49;81.99;100989.87;6494017;27;34685;-88
2022/03/16 12:08:13;;;;;;;24.80;15.85;;;;;;;7.67;81.90;100998.03;6493746;27;34175;-88
2022/03/16 12:14:37;;;;;;;28.25;19.30;;;;;;;7.78;81.03;100995.19;6494947;27;35382;-88
2022/03/16 12:18:02;;;;;;;25.23;16.83;;;;;;;7.84;80.60;101012.50;6495690;27;34414;-88
2022/03/16 12:21:08;;;;;;;28.17;17.40;;;;;;;7.71;81.13;101007.44;6494556;27;34971;-88
2022/03/16 12:31:07;;;;;;;27.40;19.60;;;;;;;7.82;81.97;101017.19;6495916;27;34012;-88
2022/03/16 12:34:14;;;;;;;24.92;17.55;;;;;;;7.86;80.61;101014.03;6499342;27;34017;-88
2022/03/16 12:37:18;;;;;;;24.83;18.55;;;;;;;7.89;79.70;101024.47;6494530;27;34025;-87
2022/03/16 12:40:21;;;;;;;24.45;16.40;;;;;;;7.78;77.68;101019.31;6495907;27;34034;-88
2022/03/16 12:43:27;;;;;;;24.25;17.55;;;;;;;7.94;78.49;101024.06;6496156;27;34186;-88
2022/03/16 12:46:36;;;;;;;29.00;16.40;;;;;;;8.38;75.65;101032.38;6495664;27;34145;-88
2022/03/16 12:49:42;;;;;;;26.33;17.27;;;;;;;8.46;73.42;101031.69;6494689;27;34595;-87
2022/03/16 12:52:51;;;;;;;25.12;16.27;;;;;;;8.68;72.13;101033.13;6498004;27;33899;-87
2022/03/16 12:55:55;;;;;;;24.07;16.50;;;;;;;8.67;72.06;101029.59;6513732;27;35361;-87
2022/03/16 12:58:58;;;;;;;26.52;16.17;;;;;;;8.53;72.29;101030.09;6514275;27;34488;-88
2022/03/16 13:02:05;;;;;;;23.15;15.32;;;;;;;8.46;72.72;101034.38;6513189;27;34317;-88
2022/03/16 13:05:10;;;;;;;20.35;14.52;;;;;;;8.48;72.39;101025.19;6499604;27;34543;-88
2022/03/16 13:08:16;;;;;;;21.40;15.13;;;;;;;8.58;72.65;101036.69;6502709;27;34063;-88
2022/03/16 13:11:24;;;;;;;20.98;14.98;;;;;;;8.95;70.58;101029.56;6498315;27;33957;-88
2022/03/16 13:14:29;;;;;;;20.23;13.68;;;;;;;9.30;68.72;101028.75;6506054;27;33875;-88
2022/03/16 13:17:37;;;;;;;21.90;13.65;;;;;;;9.50;67.93;101037.50;6504871;27;34218;-92
2022/03/16 13:20:42;;;;;;;20.27;13.95;;;;;;;10.03;66.46;101036.56;6510017;27;34404;-89
2022/03/16 13:23:46;;;;;;;19.90;14.32;;;;;;;10.76;62.84;101033.41;6515887;27;35479;-90
2022/03/16 13:26:49;;;;;;;17.37;13.02;;;;;;;10.89;61.55;101033.81;6514850;27;34377;-88
2022/03/16 13:29:55;;;;;;;19.30;12.93;;;;;;;11.02;61.03;101038.72;6511355;27;34471;-88
2022/03/16 13:33:15;;;;;;;16.50;12.15;;;;;;;13.34;55.50;101042.53;6507979;27;34191;-88
2022/03/16 13:36:30;;;;;;;15.38;11.32;;;;;;;15.43;46.39;101039.69;6499925;27;34307;-88
2022/03/16 13:39:33;;;;;;;13.65;10.80;;;;;;;14.78;46.94;101041.47;6496273;27;33708;-88
2022/03/16 13:42:37;;;;;;;13.05;9.27;;;;;;;14.95;46.77;101045.66;6497197;27;34873;-88
2022/03/16 13:45:49;;;;;;;10.95;8.15;;;;;;;16.91;42.23;101048.75;6508382;27;34591;-88
2022/03/16 13:48:56;;;;;;;12.48;8.82;;;;;;;15.09;44.56;101043.94;6514443;27;35397;-88
2022/03/16 13:52:22;;;;;;;10.98;8.32;;;;;;;16.02;43.88;101053.00;6516654;27;35414;-88
2022/03/16 13:55:34;;;;;;;10.75;8.15;;;;;;;14.48;44.70;101062.31;6516102;27;34322;-88
2022/03/16 13:58:39;;;;;;;9.05;7.68;;;;;;;14.91;44.85;101062.47;6506817;27;34073;-88
2022/03/16 14:01:42;;;;;;;9.68;7.53;;;;;;;15.50;42.33;101050.63;6516757;27;35449;-88
2022/03/16 14:04:46;;;;;;;10.18;7.90;;;;;;;16.08;41.00;101049.47;6513386;27;37156;-88
2022/03/16 14:07:53;;;;;;;9.57;7.50;;;;;;;16.08;42.37;101044.03;6515320;27;34210;-88
2022/03/16 14:10:56;;;;;;;9.40;7.28;;;;;;;14.51;44.79;101060.09;6500459;27;35358;-88
2022/03/16 14:14:09;;;;;;;9.10;7.00;;;;;;;13.21;47.78;101064.69;6497506;27;34414;-87
2022/03/16 14:17:13;;;;;;;10.98;7.65;;;;;;;13.02;48.32;101070.56;6496779;27;33884;-88
2022/03/16 14:20:19;;;;;;;10.50;7.82;;;;;;;11.78;51.05;101080.78;6496573;27;34794;-91
2022/03/16 14:23:22;;;;;;;9.82;8.05;;;;;;;11.64;52.40;101081.47;6497044;27;34047;-92
2022/03/16 14:26:25;;;;;;;8.18;7.37;;;;;;;11.62;52.49;101083.50;6496366;27;34090;-92
2022/03/16 14:29:31;;;;;;;9.90;7.10;;;;;;;11.50;52.94;101091.06;6497510;27;35144;-90
2022/03/16 14:32:34;;;;;;;8.80;7.18;;;;;;;10.84;53.56;101097.25;6498677;27;35481;-89
2022/03/16 14:35:39;;;;;;;10.43;8.00;;;;;;;10.49;56.24;101109.03;6496352;27;34032;-89
2022/03/16 14:38:42;;;;;;;11.57;7.22;;;;;;;10.27;56.33;101113.97;6497304;27;34112;-89
2022/03/16 14:41:45;;;;;;;8.75;7.20;;;;;;;9.90;57.94;101114.97;6495895;27;34148;-87
2022/03/16 14:44:47;;;;;;;10.95;7.53;;;;;;;9.81;58.82;101117.75;6494703;27;33513;-88
2022/03/16 14:47:51;;;;;;;9.98;7.50;;;;;;;10.06;57.71;101122.34;6496743;27;35396;-89
2022/03/16 14:50:54;;;;;;;10.52;7.22;;;;;;;9.89;58.26;101116.00;6496561;27;34817;-87
2022/03/16 14:54:03;;;;;;;9.25;7.22;;;;;;;9.56;59.64;101119.38;6497056;27;33787;-88
2022/03/16 14:57:06;;;;;;;9.70;7.50;;;;;;;9.51;60.25;101123.38;6492250;27;34937;-87
2022/03/16 15:00:10;;;;;;;8.68;7.55;;;;;;;9.30;60.96;101128.16;6469068;27;34947;-88
2022/03/16 15:03:14;;;;;;;11.50;8.25;;;;;;;9.46;60.34;101133.72;6469235;27;33914;-88
2022/03/16 15:06:18;;;;;;;8.52;7.55;;;;;;;9.32;61.10;101123.50;6468695;27;34222;-88
2022/03/16 15:09:21;;;;;;;8.73;7.82;;;;;;;8.91;62.11;101127.53;6469574;27;34145;-88
2022/03/16 15:12:25;;;;;;;8.18;7.37;;;;;;;8.99;63.39;101133.88;6469028;27;34380;-88
2022/03/16 15:15:29;;;;;;;8.75;6.85;;;;;;;8.79;62.21;101126.88;6478184;27;33591;-88
2022/03/16 15:18:32;;;;;;;7.70;6.90;;;;;;;8.56;62.67;101135.31;6480149;27;35471;-88
2022/03/16 15:21:37;;;;;;;7.68;6.87;;;;;;;8.53;63.75;101137.44;6490150;27;34128;-89
2022/03/16 15:24:40;;;;;;;9.00;7.43;;;;;;;8.40;63.67;101132.41;6490158;27;34519;-90
2022/03/16 15:27:43;;;;;;;7.95;6.87;;;;;;;8.38;64.16;101137.91;6491731;27;33906;-90
2022/03/16 15:30:46;;;;;;;8.55;7.12;;;;;;;8.37;64.32;101132.66;6497172;27;34188;-88
2022/03/16 15:34:23;;;;;;;9.80;7.80;;;;;;;8.45;63.67;101137.31;6492434;27;34186;-89
2022/03/16 15:37:49;;;;;;;9.20;7.78;;;;;;;8.53;63.71;101140.12;6453406;27;33762;-89
2022/03/16 15:44:15;;;;;;;8.98;7.85;;;;;;;8.62;63.60;101149.97;6471418;27;34208;-90
2022/03/16 15:47:18;;;;;;;8.10;7.30;;;;;;;8.86;63.64;101160.19;6476980;27;34184;-90
2022/03/16 15:50:23;;;;;;;7.93;7.03;;;;;;;8.88;63.65;101154.69;6475752;27;33923;-90
2022/03/16 15:53:25;;;;;;;9.27;7.43;;;;;;;8.60;63.49;101166.25;6472757;27;34978;-90
2022/03/16 15:56:30;;;;;;;8.38;7.05;;;;;;;8.57;64.43;101169.22;6475221;27;34228;-89
2022/03/16 15:59:35;;;;;;;9.70;7.50;;;;;;;8.51;65.00;101167.12;6469762;27;33561;-90
2022/03/16 16:02:38;;;;;;;9.77;7.82;;;;;;;8.39;65.20;101171.81;6472171;27;33967;-90
2022/03/16 16:05:42;;;;;;;8.55;7.65;;;;;;;8.30;65.40;101164.56;6473775;27;33888;-89
2022/03/16 16:08:45;;;;;;;8.25;7.32;;;;;;;8.33;65.86;101171.47;6471101;27;34146;-89
2022/03/16 16:11:48;;;;;;;9.50;8.07;;;;;;;8.32;66.00;101173.31;6472336;27;34375;-89
2022/03/16 16:14:51;;;;;;;10.30;8.38;;;;;;;8.27;65.75;101177.41;6471288;27;33861;-89
2022/03/16 16:17:53;;;;;;;8.98;7.78;;;;;;;8.23;66.35;101178.72;6472571;27;33458;-89
2022/03/16 16:20:56;;;;;;;10.20;8.10;;;;;;;8.17;67.08;101172.91;6473079;27;34418;-89
2022/03/16 16:24:07;;;;;;;9.57;7.68;;;;;;;8.05;66.75;101176.75;6494202;27;34705;-89
2022/03/16 16:27:09;;;;;;;8.35;7.47;;;;;;;8.07;67.69;101187.31;6493871;27;34659;-89
2022/03/16 16:30:18;;;;;;;9.05;7.95;;;;;;;7.90;67.37;101187.03;6497823;27;33916;-89
2022/03/16 16:33:23;;;;;;;9.85;7.40;;;;;;;7.83;68.04;101185.06;6495634;27;34078;-88
2022/03/16 16:36:27;;;;;;;11.10;7.85;;;;;;;7.89;68.83;101190.69;6491548;27;33907;-88
2022/03/16 16:39:31;;;;;;;9.18;7.18;;;;;;;7.80;68.56;101194.22;6491725;27;34045;-89
2022/03/16 16:45:56;;;;;;;9.35;8.23;;;;;;;7.54;68.64;101193.06;6506996;27;34625;-88
2022/03/16 16:48:59;;;;;;;11.23;8.95;;;;;;;7.41;69.26;101210.25;6500910;27;34214;-88
2022/03/16 16:52:03;;;;;;;11.23;8.55;;;;;;;7.36;70.07;101211.62;6501567;27;34537;-88
2022/03/16 16:55:09;;;;;;;11.32;9.50;;;;;;;7.30;69.67;101213.03;6495238;27;34347;-88
2022/03/16 16:58:13;;;;;;;12.60;8.88;;;;;;;7.25;70.02;101221.47;6496257;27;33955;-88
